sensor_id;sensor_type;location;lat;lon;timestamp;temperature;humidity
18141;DHT22;9196;49.194;12.526;2023-04-19T00:00:19;9.00;99.90
18141;DHT22;9196;49.194;12.526;2023-04-19T00:02:45;9.00;99.90
18141;DHT22;9196;49.194;12.526;2023-04-19T00:05:14;9.00;99.90
18141;DHT22;9196;49.194;12.526;2023-04-19T00:07:43;9.00;99.90
18141;DHT22;9196;49.194;12.526;2023-04-19T00:10:09;9.10;99.90
18141;DHT22;9196;49.194;12.526;2023-04-19T00:12:36;9.10;99.90
18141;DHT22;9196;49.194;12.526;2023-04-19T00:15:04;9.10;99.90
18141;DHT22;9196;49.194;12.526;2023-04-19T00:17:32;9.10;99.90
18141;DHT22;9196;49.194;12.526;2023-04-19T00:19:59;9.10;99.90
18141;DHT22;9196;49.194;12.526;2023-04-19T00:22:27;9.10;99.90
18141;DHT22;9196;49.194;12.526;2023-04-19T00:24:54;9.20;99.90
18141;DHT22;9196;49.194;12.526;2023-04-19T00:27:20;9.20;99.90
18141;DHT22;9196;49.194;12.526;2023-04-19T00:29:47;9.10;99.90
18141;DHT22;9196;49.194;12.526;2023-04-19T00:32:14;9.10;99.90
18141;DHT22;9196;49.194;12.526;2023-04-19T00:34:41;9.00;99.90
18141;DHT22;9196;49.194;12.526;2023-04-19T00:37:08;9.00;99.90
18141;DHT22;9196;49.194;12.526;2023-04-19T00:39:36;9.00;99.90
18141;DHT22;9196;49.194;12.526;2023-04-19T00:42:03;9.00;99.90
18141;DHT22;9196;49.194;12.526;2023-04-19T00:44:30;9.10;99.90
18141;DHT22;9196;49.194;12.526;2023-04-19T00:46:57;9.10;99.90
18141;DHT22;9196;49.194;12.526;2023-04-19T00:49:26;9.20;99.90
18141;DHT22;9196;49.194;12.526;2023-04-19T00:51:53;9.20;99.90
18141;DHT22;9196;49.194;12.526;2023-04-19T00:54:20;9.20;99.90
18141;DHT22;9196;49.194;12.526;2023-04-19T00:56:48;9.20;99.90
18141;DHT22;9196;49.194;12.526;2023-04-19T00:59:15;9.20;99.90
18141;DHT22;9196;49.194;12.526;2023-04-19T01:01:42;9.20;99.90
18141;DHT22;9196;49.194;12.526;2023-04-19T01:04:09;9.20;99.90
18141;DHT22;9196;49.194;12.526;2023-04-19T01:06:37;9.30;99.90
18141;DHT22;9196;49.194;12.526;2023-04-19T01:09:03;9.30;99.90
18141;DHT22;9196;49.194;12.526;2023-04-19T01:11:30;9.30;99.90
18141;DHT22;9196;49.194;12.526;2023-04-19T01:13:58;9.30;99.90
18141;DHT22;9196;49.194;12.526;2023-04-19T01:16:26;9.30;99.90
18141;DHT22;9196;49.194;12.526;2023-04-19T01:18:53;9.30;99.90
18141;DHT22;9196;49.194;12.526;2023-04-19T01:21:19;9.30;99.90
18141;DHT22;9196;49.194;12.526;2023-04-19T01:23:48;9.40;99.90
18141;DHT22;9196;49.194;12.526;2023-04-19T01:26:15;9.40;99.90
18141;DHT22;9196;49.194;12.526;2023-04-19T01:28:42;9.30;99.90
18141;DHT22;9196;49.194;12.526;2023-04-19T01:31:09;9.40;99.90
18141;DHT22;9196;49.194;12.526;2023-04-19T01:33:36;9.30;99.90
18141;DHT22;9196;49.194;12.526;2023-04-19T01:36:03;9.40;99.90
18141;DHT22;9196;49.194;12.526;2023-04-19T01:38:30;9.30;99.90
18141;DHT22;9196;49.194;12.526;2023-04-19T01:40:58;9.30;99.90
18141;DHT22;9196;49.194;12.526;2023-04-19T01:43:25;9.40;99.90
18141;DHT22;9196;49.194;12.526;2023-04-19T01:45:51;9.30;99.90
18141;DHT22;9196;49.194;12.526;2023-04-19T01:48:18;9.30;99.90
18141;DHT22;9196;49.194;12.526;2023-04-19T01:50:45;9.20;99.90
18141;DHT22;9196;49.194;12.526;2023-04-19T01:53:12;9.20;99.90
18141;DHT22;9196;49.194;12.526;2023-04-19T01:55:39;9.10;99.90
18141;DHT22;9196;49.194;12.526;2023-04-19T01:58:07;9.10;99.90
18141;DHT22;9196;49.194;12.526;2023-04-19T02:00:34;9.10;99.90
18141;DHT22;9196;49.194;12.526;2023-04-19T02:03:01;9.00;99.90
18141;DHT22;9196;49.194;12.526;2023-04-19T02:05:27;9.00;99.90
18141;DHT22;9196;49.194;12.526;2023-04-19T02:07:54;9.00;99.90
18141;DHT22;9196;49.194;12.526;2023-04-19T02:10:21;9.00;99.90
18141;DHT22;9196;49.194;12.526;2023-04-19T02:12:48;8.90;99.90
18141;DHT22;9196;49.194;12.526;2023-04-19T02:15:16;8.90;99.90
18141;DHT22;9196;49.194;12.526;2023-04-19T02:17:43;8.90;99.90
18141;DHT22;9196;49.194;12.526;2023-04-19T02:20:11;8.90;99.90
18141;DHT22;9196;49.194;12.526;2023-04-19T02:22:37;9.00;99.90
18141;DHT22;9196;49.194;12.526;2023-04-19T02:25:05;9.00;99.90
18141;DHT22;9196;49.194;12.526;2023-04-19T02:27:32;9.00;99.90
18141;DHT22;9196;49.194;12.526;2023-04-19T02:29:59;9.00;99.90
18141;DHT22;9196;49.194;12.526;2023-04-19T02:32:27;9.00;99.90
18141;DHT22;9196;49.194;12.526;2023-04-19T02:34:54;8.90;99.90
18141;DHT22;9196;49.194;12.526;2023-04-19T02:37:21;8.90;99.90
18141;DHT22;9196;49.194;12.526;2023-04-19T02:39:48;9.00;99.90
18141;DHT22;9196;49.194;12.526;2023-04-19T02:42:14;9.00;99.90
18141;DHT22;9196;49.194;12.526;2023-04-19T02:44:41;9.00;99.90
18141;DHT22;9196;49.194;12.526;2023-04-19T02:47:08;9.00;99.90
18141;DHT22;9196;49.194;12.526;2023-04-19T02:49:36;9.00;99.90
18141;DHT22;9196;49.194;12.526;2023-04-19T02:52:06;9.00;99.90
18141;DHT22;9196;49.194;12.526;2023-04-19T02:54:32;9.00;99.90
18141;DHT22;9196;49.194;12.526;2023-04-19T02:56:59;9.10;99.90
18141;DHT22;9196;49.194;12.526;2023-04-19T02:59:26;9.10;99.90
18141;DHT22;9196;49.194;12.526;2023-04-19T03:01:53;9.10;99.90
18141;DHT22;9196;49.194;12.526;2023-04-19T03:04:20;9.10;99.90
18141;DHT22;9196;49.194;12.526;2023-04-19T03:06:48;9.10;99.90
18141;DHT22;9196;49.194;12.526;2023-04-19T03:09:15;9.00;99.90
18141;DHT22;9196;49.194;12.526;2023-04-19T03:11:41;9.00;99.90
18141;DHT22;9196;49.194;12.526;2023-04-19T03:14:08;9.10;99.90
18141;DHT22;9196;49.194;12.526;2023-04-19T03:16:35;9.10;99.90
18141;DHT22;9196;49.194;12.526;2023-04-19T03:19:02;9.10;99.90
18141;DHT22;9196;49.194;12.526;2023-04-19T03:21:29;9.10;99.90
18141;DHT22;9196;49.194;12.526;2023-04-19T03:23:57;9.00;99.90
18141;DHT22;9196;49.194;12.526;2023-04-19T03:26:24;8.90;99.90
18141;DHT22;9196;49.194;12.526;2023-04-19T03:28:51;8.90;99.90
18141;DHT22;9196;49.194;12.526;2023-04-19T03:31:18;8.90;99.90
18141;DHT22;9196;49.194;12.526;2023-04-19T03:33:45;8.80;99.90
18141;DHT22;9196;49.194;12.526;2023-04-19T03:36:11;8.80;99.90
18141;DHT22;9196;49.194;12.526;2023-04-19T03:38:38;8.80;99.90
18141;DHT22;9196;49.194;12.526;2023-04-19T03:41:17;8.80;99.90
18141;DHT22;9196;49.194;12.526;2023-04-19T03:43:44;8.80;99.90
18141;DHT22;9196;49.194;12.526;2023-04-19T03:46:10;8.80;99.90
18141;DHT22;9196;49.194;12.526;2023-04-19T03:48:37;8.80;99.90
18141;DHT22;9196;49.194;12.526;2023-04-19T03:51:04;8.80;99.90
18141;DHT22;9196;49.194;12.526;2023-04-19T03:53:31;8.80;99.90
18141;DHT22;9196;49.194;12.526;2023-04-19T03:55:57;8.80;99.90
18141;DHT22;9196;49.194;12.526;2023-04-19T03:58:25;8.80;99.90
18141;DHT22;9196;49.194;12.526;2023-04-19T04:00:52;8.70;99.90
18141;DHT22;9196;49.194;12.526;2023-04-19T04:03:19;8.70;99.90
18141;DHT22;9196;49.194;12.526;2023-04-19T04:05:45;8.70;99.90
18141;DHT22;9196;49.194;12.526;2023-04-19T04:08:12;8.70;99.90
18141;DHT22;9196;49.194;12.526;2023-04-19T04:10:39;8.60;99.90
18141;DHT22;9196;49.194;12.526;2023-04-19T04:13:06;8.60;99.90
18141;DHT22;9196;49.194;12.526;2023-04-19T04:15:34;8.50;99.90
18141;DHT22;9196;49.194;12.526;2023-04-19T04:18:01;8.50;99.90
18141;DHT22;9196;49.194;12.526;2023-04-19T04:20:27;8.50;99.90
18141;DHT22;9196;49.194;12.526;2023-04-19T04:22:54;8.60;99.90
18141;DHT22;9196;49.194;12.526;2023-04-19T04:25:21;8.60;99.90
18141;DHT22;9196;49.194;12.526;2023-04-19T04:27:49;8.60;99.90
18141;DHT22;9196;49.194;12.526;2023-04-19T04:30:17;8.60;99.90
18141;DHT22;9196;49.194;12.526;2023-04-19T04:32:45;8.60;99.90
18141;DHT22;9196;49.194;12.526;2023-04-19T04:35:12;8.70;99.90
18141;DHT22;9196;49.194;12.526;2023-04-19T04:37:38;8.80;99.90
18141;DHT22;9196;49.194;12.526;2023-04-19T04:40:06;8.90;99.90
18141;DHT22;9196;49.194;12.526;2023-04-19T04:42:34;8.90;99.90
18141;DHT22;9196;49.194;12.526;2023-04-19T04:45:02;9.00;99.90
18141;DHT22;9196;49.194;12.526;2023-04-19T04:47:30;9.10;99.90
18141;DHT22;9196;49.194;12.526;2023-04-19T04:49:58;9.10;99.90
18141;DHT22;9196;49.194;12.526;2023-04-19T04:52:25;9.10;99.90
18141;DHT22;9196;49.194;12.526;2023-04-19T04:54:52;9.10;99.90
18141;DHT22;9196;49.194;12.526;2023-04-19T04:57:19;9.40;99.90
18141;DHT22;9196;49.194;12.526;2023-04-19T04:59:45;9.40;99.90
18141;DHT22;9196;49.194;12.526;2023-04-19T05:02:12;9.40;99.90
18141;DHT22;9196;49.194;12.526;2023-04-19T05:04:39;9.40;99.90
18141;DHT22;9196;49.194;12.526;2023-04-19T05:07:07;9.30;99.90
18141;DHT22;9196;49.194;12.526;2023-04-19T05:09:35;9.20;99.90
18141;DHT22;9196;49.194;12.526;2023-04-19T05:12:02;9.10;99.90
18141;DHT22;9196;49.194;12.526;2023-04-19T05:14:28;9.00;99.90
18141;DHT22;9196;49.194;12.526;2023-04-19T05:16:55;9.00;99.90
18141;DHT22;9196;49.194;12.526;2023-04-19T05:19:22;8.90;99.90
18141;DHT22;9196;49.194;12.526;2023-04-19T05:21:49;9.00;99.90
18141;DHT22;9196;49.194;12.526;2023-04-19T05:24:17;9.00;99.90
18141;DHT22;9196;49.194;12.526;2023-04-19T05:26:43;9.00;99.90
18141;DHT22;9196;49.194;12.526;2023-04-19T05:29:10;9.00;99.90
18141;DHT22;9196;49.194;12.526;2023-04-19T05:31:37;9.10;99.90
18141;DHT22;9196;49.194;12.526;2023-04-19T05:34:04;9.10;99.90
18141;DHT22;9196;49.194;12.526;2023-04-19T05:36:30;9.00;99.90
18141;DHT22;9196;49.194;12.526;2023-04-19T05:38:57;9.10;99.90
18141;DHT22;9196;49.194;12.526;2023-04-19T05:41:25;9.10;99.90
18141;DHT22;9196;49.194;12.526;2023-04-19T05:43:52;9.10;99.90
18141;DHT22;9196;49.194;12.526;2023-04-19T05:46:19;9.10;99.90
18141;DHT22;9196;49.194;12.526;2023-04-19T05:48:45;9.10;99.90
18141;DHT22;9196;49.194;12.526;2023-04-19T05:51:13;9.10;99.90
18141;DHT22;9196;49.194;12.526;2023-04-19T05:53:41;9.00;99.90
18141;DHT22;9196;49.194;12.526;2023-04-19T05:56:08;9.00;99.90
18141;DHT22;9196;49.194;12.526;2023-04-19T05:58:36;9.00;99.90
18141;DHT22;9196;49.194;12.526;2023-04-19T06:01:03;9.00;99.90
18141;DHT22;9196;49.194;12.526;2023-04-19T06:03:30;9.10;99.90
18141;DHT22;9196;49.194;12.526;2023-04-19T06:05:57;9.00;99.90
18141;DHT22;9196;49.194;12.526;2023-04-19T06:08:24;9.10;99.90
18141;DHT22;9196;49.194;12.526;2023-04-19T06:10:51;9.10;99.90
18141;DHT22;9196;49.194;12.526;2023-04-19T06:13:19;9.10;99.90
18141;DHT22;9196;49.194;12.526;2023-04-19T06:15:47;9.10;99.90
18141;DHT22;9196;49.194;12.526;2023-04-19T06:18:14;9.20;99.90
18141;DHT22;9196;49.194;12.526;2023-04-19T06:20:41;9.20;99.90
18141;DHT22;9196;49.194;12.526;2023-04-19T06:23:08;9.20;99.90
18141;DHT22;9196;49.194;12.526;2023-04-19T06:25:37;9.20;99.90
18141;DHT22;9196;49.194;12.526;2023-04-19T06:28:03;9.40;99.90
18141;DHT22;9196;49.194;12.526;2023-04-19T06:30:31;9.40;99.90
18141;DHT22;9196;49.194;12.526;2023-04-19T06:32:59;9.30;99.90
18141;DHT22;9196;49.194;12.526;2023-04-19T06:35:26;9.20;99.90
18141;DHT22;9196;49.194;12.526;2023-04-19T06:37:52;9.30;99.90
18141;DHT22;9196;49.194;12.526;2023-04-19T06:40:19;9.20;99.90
18141;DHT22;9196;49.194;12.526;2023-04-19T06:42:46;9.30;99.90
18141;DHT22;9196;49.194;12.526;2023-04-19T06:45:13;9.30;99.90
18141;DHT22;9196;49.194;12.526;2023-04-19T06:47:40;9.30;99.90
18141;DHT22;9196;49.194;12.526;2023-04-19T06:50:10;9.30;99.90
18141;DHT22;9196;49.194;12.526;2023-04-19T06:52:37;9.30;99.90
18141;DHT22;9196;49.194;12.526;2023-04-19T06:55:04;9.30;99.90
18141;DHT22;9196;49.194;12.526;2023-04-19T06:57:31;9.30;99.90
18141;DHT22;9196;49.194;12.526;2023-04-19T06:59:58;9.30;99.90
18141;DHT22;9196;49.194;12.526;2023-04-19T07:02:25;9.30;99.90
18141;DHT22;9196;49.194;12.526;2023-04-19T07:04:52;9.30;99.90
18141;DHT22;9196;49.194;12.526;2023-04-19T07:07:20;9.30;99.90
18141;DHT22;9196;49.194;12.526;2023-04-19T07:09:46;9.30;99.90
18141;DHT22;9196;49.194;12.526;2023-04-19T07:12:13;9.30;99.90
18141;DHT22;9196;49.194;12.526;2023-04-19T07:14:40;9.40;99.90
18141;DHT22;9196;49.194;12.526;2023-04-19T07:17:07;9.50;99.90
18141;DHT22;9196;49.194;12.526;2023-04-19T07:19:34;9.50;99.90
18141;DHT22;9196;49.194;12.526;2023-04-19T07:22:01;9.50;99.90
18141;DHT22;9196;49.194;12.526;2023-04-19T07:24:30;9.50;99.90
18141;DHT22;9196;49.194;12.526;2023-04-19T07:26:56;9.50;99.90
18141;DHT22;9196;49.194;12.526;2023-04-19T07:29:23;9.50;99.90
18141;DHT22;9196;49.194;12.526;2023-04-19T07:31:50;9.50;99.90
18141;DHT22;9196;49.194;12.526;2023-04-19T07:34:19;9.60;99.90
18141;DHT22;9196;49.194;12.526;2023-04-19T07:36:46;9.60;99.90
18141;DHT22;9196;49.194;12.526;2023-04-19T07:39:13;9.50;99.90
18141;DHT22;9196;49.194;12.526;2023-04-19T07:41:41;9.60;99.90
18141;DHT22;9196;49.194;12.526;2023-04-19T07:44:08;9.60;99.90
18141;DHT22;9196;49.194;12.526;2023-04-19T07:46:36;9.70;99.90
18141;DHT22;9196;49.194;12.526;2023-04-19T07:49:02;9.80;99.90
18141;DHT22;9196;49.194;12.526;2023-04-19T07:51:29;9.80;99.90
18141;DHT22;9196;49.194;12.526;2023-04-19T07:53:56;9.80;99.90
18141;DHT22;9196;49.194;12.526;2023-04-19T07:56:23;9.80;99.90
18141;DHT22;9196;49.194;12.526;2023-04-19T07:58:52;9.80;99.90
18141;DHT22;9196;49.194;12.526;2023-04-19T08:01:19;9.70;99.90
18141;DHT22;9196;49.194;12.526;2023-04-19T08:03:46;9.70;99.90
18141;DHT22;9196;49.194;12.526;2023-04-19T08:06:12;9.70;99.90
18141;DHT22;9196;49.194;12.526;2023-04-19T08:08:39;9.80;99.90
18141;DHT22;9196;49.194;12.526;2023-04-19T08:11:06;9.80;99.90
18141;DHT22;9196;49.194;12.526;2023-04-19T08:13:33;9.90;99.90
18141;DHT22;9196;49.194;12.526;2023-04-19T08:16:01;9.90;99.90
18141;DHT22;9196;49.194;12.526;2023-04-19T08:18:30;9.90;99.90
18141;DHT22;9196;49.194;12.526;2023-04-19T08:20:57;9.90;99.90
18141;DHT22;9196;49.194;12.526;2023-04-19T08:23:23;9.90;99.90
18141;DHT22;9196;49.194;12.526;2023-04-19T08:25:50;10.00;99.90
18141;DHT22;9196;49.194;12.526;2023-04-19T08:28:17;10.00;99.90
18141;DHT22;9196;49.194;12.526;2023-04-19T08:30:44;10.00;99.90
18141;DHT22;9196;49.194;12.526;2023-04-19T08:33:12;10.10;99.90
18141;DHT22;9196;49.194;12.526;2023-04-19T08:35:40;10.10;99.90
18141;DHT22;9196;49.194;12.526;2023-04-19T08:38:06;10.20;99.90
18141;DHT22;9196;49.194;12.526;2023-04-19T08:40:34;10.30;99.90
18141;DHT22;9196;49.194;12.526;2023-04-19T08:43:04;10.20;99.90
18141;DHT22;9196;49.194;12.526;2023-04-19T08:45:32;10.20;99.90
18141;DHT22;9196;49.194;12.526;2023-04-19T08:48:01;10.10;99.90
18141;DHT22;9196;49.194;12.526;2023-04-19T08:50:30;10.20;99.90
18141;DHT22;9196;49.194;12.526;2023-04-19T08:52:58;10.20;99.90
18141;DHT22;9196;49.194;12.526;2023-04-19T08:55:25;10.30;99.90
18141;DHT22;9196;49.194;12.526;2023-04-19T08:57:53;10.30;99.90
18141;DHT22;9196;49.194;12.526;2023-04-19T09:00:20;10.20;99.90
18141;DHT22;9196;49.194;12.526;2023-04-19T09:02:48;10.10;99.90
18141;DHT22;9196;49.194;12.526;2023-04-19T09:05:17;10.20;99.90
18141;DHT22;9196;49.194;12.526;2023-04-19T09:07:46;10.10;99.90
18141;DHT22;9196;49.194;12.526;2023-04-19T09:10:13;10.00;99.90
18141;DHT22;9196;49.194;12.526;2023-04-19T09:12:41;10.00;99.90
18141;DHT22;9196;49.194;12.526;2023-04-19T09:15:08;10.00;99.90
18141;DHT22;9196;49.194;12.526;2023-04-19T09:17:36;10.00;99.90
18141;DHT22;9196;49.194;12.526;2023-04-19T09:20:05;10.10;99.90
18141;DHT22;9196;49.194;12.526;2023-04-19T09:22:33;10.20;99.90
18141;DHT22;9196;49.194;12.526;2023-04-19T09:25:01;10.30;99.90
18141;DHT22;9196;49.194;12.526;2023-04-19T09:27:29;10.40;99.90
18141;DHT22;9196;49.194;12.526;2023-04-19T09:29:57;10.40;99.90
18141;DHT22;9196;49.194;12.526;2023-04-19T09:32:24;10.40;99.90
18141;DHT22;9196;49.194;12.526;2023-04-19T09:34:53;10.50;99.90
18141;DHT22;9196;49.194;12.526;2023-04-19T09:37:20;10.50;99.90
18141;DHT22;9196;49.194;12.526;2023-04-19T09:39:48;10.50;99.90
18141;DHT22;9196;49.194;12.526;2023-04-19T09:42:16;10.50;99.90
18141;DHT22;9196;49.194;12.526;2023-04-19T09:44:59;10.40;99.90
18141;DHT22;9196;49.194;12.526;2023-04-19T09:47:27;10.50;99.90
18141;DHT22;9196;49.194;12.526;2023-04-19T09:50:06;10.50;99.90
18141;DHT22;9196;49.194;12.526;2023-04-19T09:52:33;10.50;99.90
18141;DHT22;9196;49.194;12.526;2023-04-19T09:55:01;10.50;99.90
18141;DHT22;9196;49.194;12.526;2023-04-19T09:57:30;10.40;99.90
18141;DHT22;9196;49.194;12.526;2023-04-19T09:59:58;10.40;99.90
18141;DHT22;9196;49.194;12.526;2023-04-19T10:02:29;10.40;99.90
18141;DHT22;9196;49.194;12.526;2023-04-19T10:04:57;10.40;99.90
18141;DHT22;9196;49.194;12.526;2023-04-19T10:07:24;10.40;99.90
18141;DHT22;9196;49.194;12.526;2023-04-19T10:09:54;10.30;99.90
18141;DHT22;9196;49.194;12.526;2023-04-19T10:12:23;10.30;99.90
18141;DHT22;9196;49.194;12.526;2023-04-19T10:14:53;10.30;99.90
18141;DHT22;9196;49.194;12.526;2023-04-19T10:17:22;10.40;99.90
18141;DHT22;9196;49.194;12.526;2023-04-19T10:19:53;10.30;99.90
18141;DHT22;9196;49.194;12.526;2023-04-19T10:22:21;10.30;99.90
18141;DHT22;9196;49.194;12.526;2023-04-19T10:25:07;10.30;99.90
18141;DHT22;9196;49.194;12.526;2023-04-19T10:27:34;10.20;99.90
18141;DHT22;9196;49.194;12.526;2023-04-19T10:30:04;10.20;99.90
18141;DHT22;9196;49.194;12.526;2023-04-19T10:32:38;10.10;99.90
18141;DHT22;9196;49.194;12.526;2023-04-19T10:35:08;9.90;99.90
18141;DHT22;9196;49.194;12.526;2023-04-19T10:37:38;9.70;99.90
18141;DHT22;9196;49.194;12.526;2023-04-19T10:40:07;9.50;99.90
18141;DHT22;9196;49.194;12.526;2023-04-19T10:45:36;9.40;99.90
18141;DHT22;9196;49.194;12.526;2023-04-19T10:48:03;9.40;99.90
18141;DHT22;9196;49.194;12.526;2023-04-19T10:50:56;9.40;99.90
18141;DHT22;9196;49.194;12.526;2023-04-19T10:53:42;9.40;99.90
18141;DHT22;9196;49.194;12.526;2023-04-19T10:56:09;9.30;99.90
18141;DHT22;9196;49.194;12.526;2023-04-19T11:01:38;9.30;99.90
18141;DHT22;9196;49.194;12.526;2023-04-19T11:04:08;9.30;99.90
18141;DHT22;9196;49.194;12.526;2023-04-19T11:06:35;9.20;99.90
18141;DHT22;9196;49.194;12.526;2023-04-19T11:09:03;9.20;99.90
18141;DHT22;9196;49.194;12.526;2023-04-19T11:11:32;9.20;99.90
18141;DHT22;9196;49.194;12.526;2023-04-19T11:14:00;9.20;99.90
18141;DHT22;9196;49.194;12.526;2023-04-19T11:16:27;9.20;99.90
18141;DHT22;9196;49.194;12.526;2023-04-19T11:18:55;9.20;99.90
18141;DHT22;9196;49.194;12.526;2023-04-19T11:21:22;9.20;99.90
18141;DHT22;9196;49.194;12.526;2023-04-19T11:24:04;9.20;99.90
18141;DHT22;9196;49.194;12.526;2023-04-19T11:26:31;9.10;99.90
18141;DHT22;9196;49.194;12.526;2023-04-19T11:28:59;9.10;99.90
18141;DHT22;9196;49.194;12.526;2023-04-19T11:31:26;9.00;99.90
18141;DHT22;9196;49.194;12.526;2023-04-19T11:33:54;9.00;99.90
18141;DHT22;9196;49.194;12.526;2023-04-19T11:36:24;9.00;99.90
18141;DHT22;9196;49.194;12.526;2023-04-19T11:38:51;9.00;99.90
18141;DHT22;9196;49.194;12.526;2023-04-19T11:41:18;9.10;99.90
18141;DHT22;9196;49.194;12.526;2023-04-19T11:43:45;9.20;99.90
18141;DHT22;9196;49.194;12.526;2023-04-19T11:46:13;9.30;99.90
18141;DHT22;9196;49.194;12.526;2023-04-19T11:48:49;9.40;99.90
18141;DHT22;9196;49.194;12.526;2023-04-19T11:51:18;9.50;99.90
18141;DHT22;9196;49.194;12.526;2023-04-19T11:53:46;9.60;99.90
18141;DHT22;9196;49.194;12.526;2023-04-19T11:56:13;9.80;99.90
18141;DHT22;9196;49.194;12.526;2023-04-19T11:58:42;10.10;99.90
18141;DHT22;9196;49.194;12.526;2023-04-19T12:01:11;10.30;99.90
18141;DHT22;9196;49.194;12.526;2023-04-19T12:03:45;10.50;99.90
18141;DHT22;9196;49.194;12.526;2023-04-19T12:06:13;10.50;99.90
18141;DHT22;9196;49.194;12.526;2023-04-19T12:08:44;10.40;99.90
18141;DHT22;9196;49.194;12.526;2023-04-19T12:11:11;10.30;99.90
18141;DHT22;9196;49.194;12.526;2023-04-19T12:13:38;10.10;99.90
18141;DHT22;9196;49.194;12.526;2023-04-19T12:16:06;10.10;99.90
18141;DHT22;9196;49.194;12.526;2023-04-19T12:18:44;10.00;99.90
18141;DHT22;9196;49.194;12.526;2023-04-19T12:21:23;10.10;99.90
18141;DHT22;9196;49.194;12.526;2023-04-19T12:23:54;10.00;99.90
18141;DHT22;9196;49.194;12.526;2023-04-19T12:26:21;9.90;99.90
18141;DHT22;9196;49.194;12.526;2023-04-19T12:28:48;9.90;99.90
18141;DHT22;9196;49.194;12.526;2023-04-19T12:31:15;10.00;99.90
18141;DHT22;9196;49.194;12.526;2023-04-19T12:33:42;10.00;99.90
18141;DHT22;9196;49.194;12.526;2023-04-19T12:36:08;10.10;99.90
18141;DHT22;9196;49.194;12.526;2023-04-19T12:38:35;10.30;99.90
18141;DHT22;9196;49.194;12.526;2023-04-19T12:41:04;10.30;99.90
18141;DHT22;9196;49.194;12.526;2023-04-19T12:43:31;10.20;99.90
18141;DHT22;9196;49.194;12.526;2023-04-19T12:45:58;10.10;99.90
18141;DHT22;9196;49.194;12.526;2023-04-19T12:48:26;10.00;99.90
18141;DHT22;9196;49.194;12.526;2023-04-19T12:50:53;9.90;99.90
18141;DHT22;9196;49.194;12.526;2023-04-19T12:53:20;9.90;99.90
18141;DHT22;9196;49.194;12.526;2023-04-19T12:55:47;9.80;99.90
18141;DHT22;9196;49.194;12.526;2023-04-19T12:58:16;9.80;99.90
18141;DHT22;9196;49.194;12.526;2023-04-19T13:00:43;9.90;99.90
18141;DHT22;9196;49.194;12.526;2023-04-19T13:03:10;9.90;99.90
18141;DHT22;9196;49.194;12.526;2023-04-19T13:05:37;10.10;99.90
18141;DHT22;9196;49.194;12.526;2023-04-19T13:08:04;10.50;99.90
18141;DHT22;9196;49.194;12.526;2023-04-19T13:10:31;11.10;99.90
18141;DHT22;9196;49.194;12.526;2023-04-19T13:12:58;11.30;99.90
18141;DHT22;9196;49.194;12.526;2023-04-19T13:15:26;11.60;99.90
18141;DHT22;9196;49.194;12.526;2023-04-19T13:17:53;11.90;99.90
18141;DHT22;9196;49.194;12.526;2023-04-19T13:20:20;12.20;99.90
18141;DHT22;9196;49.194;12.526;2023-04-19T13:22:47;12.30;99.90
18141;DHT22;9196;49.194;12.526;2023-04-19T13:25:14;12.50;99.90
18141;DHT22;9196;49.194;12.526;2023-04-19T13:27:41;12.60;99.90
18141;DHT22;9196;49.194;12.526;2023-04-19T13:30:08;12.60;99.90
18141;DHT22;9196;49.194;12.526;2023-04-19T13:32:36;12.90;99.90
18141;DHT22;9196;49.194;12.526;2023-04-19T13:35:04;13.10;99.90
18141;DHT22;9196;49.194;12.526;2023-04-19T13:37:31;13.40;99.90
18141;DHT22;9196;49.194;12.526;2023-04-19T13:39:57;13.80;99.90
18141;DHT22;9196;49.194;12.526;2023-04-19T13:42:24;14.20;99.90
18141;DHT22;9196;49.194;12.526;2023-04-19T13:44:53;14.60;99.90
18141;DHT22;9196;49.194;12.526;2023-04-19T13:47:20;14.80;99.90
18141;DHT22;9196;49.194;12.526;2023-04-19T13:49:48;15.10;99.90
18141;DHT22;9196;49.194;12.526;2023-04-19T13:52:16;15.30;99.90
18141;DHT22;9196;49.194;12.526;2023-04-19T13:54:43;15.30;99.90
18141;DHT22;9196;49.194;12.526;2023-04-19T13:57:10;15.10;99.80
18141;DHT22;9196;49.194;12.526;2023-04-19T13:59:37;14.70;99.90
18141;DHT22;9196;49.194;12.526;2023-04-19T14:02:04;14.30;94.00
18141;DHT22;9196;49.194;12.526;2023-04-19T14:04:31;13.80;92.80
18141;DHT22;9196;49.194;12.526;2023-04-19T14:06:59;13.40;91.70
18141;DHT22;9196;49.194;12.526;2023-04-19T14:09:26;13.10;93.00
18141;DHT22;9196;49.194;12.526;2023-04-19T14:11:53;13.10;92.30
18141;DHT22;9196;49.194;12.526;2023-04-19T14:14:20;13.50;93.70
18141;DHT22;9196;49.194;12.526;2023-04-19T14:16:46;14.00;92.80
18141;DHT22;9196;49.194;12.526;2023-04-19T14:19:13;14.30;91.10
18141;DHT22;9196;49.194;12.526;2023-04-19T14:21:40;14.60;90.00
18141;DHT22;9196;49.194;12.526;2023-04-19T14:24:08;14.80;88.10
18141;DHT22;9196;49.194;12.526;2023-04-19T14:26:35;14.70;83.40
18141;DHT22;9196;49.194;12.526;2023-04-19T14:29:02;14.30;82.00
18141;DHT22;9196;49.194;12.526;2023-04-19T14:31:28;13.80;82.40
18141;DHT22;9196;49.194;12.526;2023-04-19T14:33:55;13.30;87.30
18141;DHT22;9196;49.194;12.526;2023-04-19T14:36:24;12.90;85.80
18141;DHT22;9196;49.194;12.526;2023-04-19T14:38:51;12.50;85.50
18141;DHT22;9196;49.194;12.526;2023-04-19T14:41:19;12.30;84.80
18141;DHT22;9196;49.194;12.526;2023-04-19T14:43:47;12.20;86.40
18141;DHT22;9196;49.194;12.526;2023-04-19T14:46:14;12.20;86.50
18141;DHT22;9196;49.194;12.526;2023-04-19T14:48:40;12.40;88.70
18141;DHT22;9196;49.194;12.526;2023-04-19T14:51:07;12.50;86.70
18141;DHT22;9196;49.194;12.526;2023-04-19T14:53:34;12.50;85.70
18141;DHT22;9196;49.194;12.526;2023-04-19T14:56:03;12.40;86.90
18141;DHT22;9196;49.194;12.526;2023-04-19T14:58:31;12.50;87.80
18141;DHT22;9196;49.194;12.526;2023-04-19T15:00:58;12.50;88.50
18141;DHT22;9196;49.194;12.526;2023-04-19T15:03:25;12.10;82.50
18141;DHT22;9196;49.194;12.526;2023-04-19T15:05:52;11.90;84.00
18141;DHT22;9196;49.194;12.526;2023-04-19T15:08:18;11.90;85.90
18141;DHT22;9196;49.194;12.526;2023-04-19T15:10:45;12.00;87.30
18141;DHT22;9196;49.194;12.526;2023-04-19T15:13:12;12.30;88.40
18141;DHT22;9196;49.194;12.526;2023-04-19T15:15:40;12.50;85.50
18141;DHT22;9196;49.194;12.526;2023-04-19T15:18:07;12.70;84.70
18141;DHT22;9196;49.194;12.526;2023-04-19T15:20:34;12.80;81.80
18141;DHT22;9196;49.194;12.526;2023-04-19T15:23:01;12.40;79.80
18141;DHT22;9196;49.194;12.526;2023-04-19T15:25:28;12.30;79.20
18141;DHT22;9196;49.194;12.526;2023-04-19T15:27:55;12.20;81.90
18141;DHT22;9196;49.194;12.526;2023-04-19T15:30:22;12.00;81.40
18141;DHT22;9196;49.194;12.526;2023-04-19T15:32:50;12.00;83.40
18141;DHT22;9196;49.194;12.526;2023-04-19T15:35:17;11.80;79.10
18141;DHT22;9196;49.194;12.526;2023-04-19T15:37:45;11.60;80.70
18141;DHT22;9196;49.194;12.526;2023-04-19T15:40:12;11.40;78.80
18141;DHT22;9196;49.194;12.526;2023-04-19T15:42:41;11.50;78.90
18141;DHT22;9196;49.194;12.526;2023-04-19T15:45:08;11.40;79.30
18141;DHT22;9196;49.194;12.526;2023-04-19T15:47:35;11.30;79.10